sensor_id;sensor_type;location;lat;lon;timestamp;temperature;humidity
20590;DHT22;10453;50.810;12.540;2023-03-12T00:03:08;-1.90;99.90
20590;DHT22;10453;50.810;12.540;2023-03-12T00:07:25;-2.00;99.90
20590;DHT22;10453;50.810;12.540;2023-03-12T00:11:43;-2.00;99.90
20590;DHT22;10453;50.810;12.540;2023-03-12T00:16:05;-2.00;99.90
20590;DHT22;10453;50.810;12.540;2023-03-12T00:20:22;-2.00;99.90
20590;DHT22;10453;50.810;12.540;2023-03-12T00:24:39;-2.10;99.90
20590;DHT22;10453;50.810;12.540;2023-03-12T00:28:56;-2.10;99.90
20590;DHT22;10453;50.810;12.540;2023-03-12T00:33:13;-2.20;99.90
20590;DHT22;10453;50.810;12.540;2023-03-12T00:37:30;-2.10;99.90
20590;DHT22;10453;50.810;12.540;2023-03-12T00:41:49;-2.20;99.90
20590;DHT22;10453;50.810;12.540;2023-03-12T00:46:06;-2.20;99.90
20590;DHT22;10453;50.810;12.540;2023-03-12T00:50:23;-2.20;99.90
20590;DHT22;10453;50.810;12.540;2023-03-12T00:54:40;-2.20;99.90
20590;DHT22;10453;50.810;12.540;2023-03-12T00:58:58;-2.20;99.90
20590;DHT22;10453;50.810;12.540;2023-03-12T01:03:15;-2.20;99.90
20590;DHT22;10453;50.810;12.540;2023-03-12T01:07:33;-2.20;99.90
20590;DHT22;10453;50.810;12.540;2023-03-12T01:11:51;-2.20;99.90
20590;DHT22;10453;50.810;12.540;2023-03-12T01:16:08;-2.30;99.90
20590;DHT22;10453;50.810;12.540;2023-03-12T01:20:25;-2.30;99.90
20590;DHT22;10453;50.810;12.540;2023-03-12T01:24:42;-2.50;99.90
20590;DHT22;10453;50.810;12.540;2023-03-12T01:28:59;-2.50;99.90
20590;DHT22;10453;50.810;12.540;2023-03-12T01:33:17;-2.30;99.90
20590;DHT22;10453;50.810;12.540;2023-03-12T01:37:34;-2.30;99.90
20590;DHT22;10453;50.810;12.540;2023-03-12T01:41:51;-2.30;99.90
20590;DHT22;10453;50.810;12.540;2023-03-12T01:46:37;-2.30;99.90
20590;DHT22;10453;50.810;12.540;2023-03-12T01:50:54;-2.40;99.90
20590;DHT22;10453;50.810;12.540;2023-03-12T01:55:14;-2.50;99.90
20590;DHT22;10453;50.810;12.540;2023-03-12T01:59:36;-2.70;99.90
20590;DHT22;10453;50.810;12.540;2023-03-12T02:03:55;-2.90;99.90
20590;DHT22;10453;50.810;12.540;2023-03-12T02:08:15;-3.00;99.90
20590;DHT22;10453;50.810;12.540;2023-03-12T02:12:33;-3.00;99.90
20590;DHT22;10453;50.810;12.540;2023-03-12T02:16:52;-3.10;99.90
20590;DHT22;10453;50.810;12.540;2023-03-12T02:21:21;-3.10;99.90
20590;DHT22;10453;50.810;12.540;2023-03-12T02:25:43;-3.10;99.90
20590;DHT22;10453;50.810;12.540;2023-03-12T02:30:03;-3.00;99.90
20590;DHT22;10453;50.810;12.540;2023-03-12T02:34:21;-3.00;99.90
20590;DHT22;10453;50.810;12.540;2023-03-12T02:38:45;-3.10;99.90
20590;DHT22;10453;50.810;12.540;2023-03-12T02:43:05;-3.20;99.90
20590;DHT22;10453;50.810;12.540;2023-03-12T02:47:22;-3.20;99.90
20590;DHT22;10453;50.810;12.540;2023-03-12T02:51:41;-3.20;99.90
20590;DHT22;10453;50.810;12.540;2023-03-12T02:56:00;-3.20;99.90
20590;DHT22;10453;50.810;12.540;2023-03-12T03:00:19;-3.30;99.90
20590;DHT22;10453;50.810;12.540;2023-03-12T03:04:36;-3.30;99.90
20590;DHT22;10453;50.810;12.540;2023-03-12T03:08:53;-3.30;99.90
20590;DHT22;10453;50.810;12.540;2023-03-12T03:13:11;-3.40;99.90
20590;DHT22;10453;50.810;12.540;2023-03-12T03:17:28;-3.50;99.90
20590;DHT22;10453;50.810;12.540;2023-03-12T03:21:46;-3.50;99.90
20590;DHT22;10453;50.810;12.540;2023-03-12T03:26:03;-3.50;99.90
20590;DHT22;10453;50.810;12.540;2023-03-12T03:30:21;-3.60;99.90
20590;DHT22;10453;50.810;12.540;2023-03-12T03:34:38;-3.60;99.90
20590;DHT22;10453;50.810;12.540;2023-03-12T03:38:55;-3.50;99.90
20590;DHT22;10453;50.810;12.540;2023-03-12T03:43:13;-3.50;99.90
20590;DHT22;10453;50.810;12.540;2023-03-12T03:47:30;-3.50;99.90
20590;DHT22;10453;50.810;12.540;2023-03-12T03:51:47;-3.60;99.90
20590;DHT22;10453;50.810;12.540;2023-03-12T03:56:06;-3.50;99.90
20590;DHT22;10453;50.810;12.540;2023-03-12T04:00:23;-3.50;99.90
20590;DHT22;10453;50.810;12.540;2023-03-12T04:04:40;-3.40;99.90
20590;DHT22;10453;50.810;12.540;2023-03-12T04:08:58;-3.30;99.90
20590;DHT22;10453;50.810;12.540;2023-03-12T04:13:15;-3.20;99.90
20590;DHT22;10453;50.810;12.540;2023-03-12T04:17:32;-3.20;99.90
20590;DHT22;10453;50.810;12.540;2023-03-12T04:21:50;-3.20;99.90
20590;DHT22;10453;50.810;12.540;2023-03-12T04:26:07;-3.30;99.90
20590;DHT22;10453;50.810;12.540;2023-03-12T04:30:24;-3.30;99.90
20590;DHT22;10453;50.810;12.540;2023-03-12T04:34:41;-3.30;99.90
20590;DHT22;10453;50.810;12.540;2023-03-12T04:38:58;-3.40;99.90
20590;DHT22;10453;50.810;12.540;2023-03-12T04:43:15;-3.30;99.90
20590;DHT22;10453;50.810;12.540;2023-03-12T04:47:36;-3.30;99.90
20590;DHT22;10453;50.810;12.540;2023-03-12T04:51:53;-3.40;99.90
20590;DHT22;10453;50.810;12.540;2023-03-12T04:56:11;-3.30;99.90
20590;DHT22;10453;50.810;12.540;2023-03-12T05:00:28;-3.40;99.90
20590;DHT22;10453;50.810;12.540;2023-03-12T05:04:45;-3.30;99.90
20590;DHT22;10453;50.810;12.540;2023-03-12T05:09:02;-3.30;99.90
20590;DHT22;10453;50.810;12.540;2023-03-12T05:13:21;-3.30;99.90
20590;DHT22;10453;50.810;12.540;2023-03-12T05:17:39;-3.30;99.90
20590;DHT22;10453;50.810;12.540;2023-03-12T05:21:56;-3.30;99.90
20590;DHT22;10453;50.810;12.540;2023-03-12T05:26:22;-3.20;99.90
20590;DHT22;10453;50.810;12.540;2023-03-12T05:30:39;-3.10;99.90
20590;DHT22;10453;50.810;12.540;2023-03-12T05:34:56;-3.00;99.90
20590;DHT22;10453;50.810;12.540;2023-03-12T05:39:13;-2.90;99.90
20590;DHT22;10453;50.810;12.540;2023-03-12T05:43:31;-2.70;99.90
20590;DHT22;10453;50.810;12.540;2023-03-12T05:47:48;-2.70;99.90
20590;DHT22;10453;50.810;12.540;2023-03-12T05:52:06;-2.60;99.90
20590;DHT22;10453;50.810;12.540;2023-03-12T05:56:23;-2.50;99.90
20590;DHT22;10453;50.810;12.540;2023-03-12T06:00:41;-2.40;99.90
20590;DHT22;10453;50.810;12.540;2023-03-12T06:05:00;-2.40;99.90
20590;DHT22;10453;50.810;12.540;2023-03-12T06:09:17;-2.40;99.90
20590;DHT22;10453;50.810;12.540;2023-03-12T06:13:34;-2.30;99.90
20590;DHT22;10453;50.810;12.540;2023-03-12T06:17:51;-2.20;99.90
20590;DHT22;10453;50.810;12.540;2023-03-12T06:22:08;-2.10;99.90
20590;DHT22;10453;50.810;12.540;2023-03-12T06:26:27;-2.00;99.90
20590;DHT22;10453;50.810;12.540;2023-03-12T06:30:44;-1.90;99.90
20590;DHT22;10453;50.810;12.540;2023-03-12T06:35:01;-1.90;99.90
20590;DHT22;10453;50.810;12.540;2023-03-12T06:39:20;-1.80;99.90
20590;DHT22;10453;50.810;12.540;2023-03-12T06:43:38;-1.70;99.90
20590;DHT22;10453;50.810;12.540;2023-03-12T06:47:55;-1.60;99.90
20590;DHT22;10453;50.810;12.540;2023-03-12T06:52:12;-1.50;99.90
20590;DHT22;10453;50.810;12.540;2023-03-12T06:56:30;-1.30;99.90
20590;DHT22;10453;50.810;12.540;2023-03-12T07:00:47;-1.00;99.90
20590;DHT22;10453;50.810;12.540;2023-03-12T07:05:05;-0.60;99.90
20590;DHT22;10453;50.810;12.540;2023-03-12T07:09:22;-0.40;99.90
20590;DHT22;10453;50.810;12.540;2023-03-12T07:13:40;-0.20;99.90
20590;DHT22;10453;50.810;12.540;2023-03-12T07:18:04;0.00;99.90
20590;DHT22;10453;50.810;12.540;2023-03-12T07:22:21;0.00;99.90
20590;DHT22;10453;50.810;12.540;2023-03-12T07:26:39;0.20;99.90
20590;DHT22;10453;50.810;12.540;2023-03-12T07:31:01;0.50;99.90
20590;DHT22;10453;50.810;12.540;2023-03-12T07:35:19;0.50;99.90
20590;DHT22;10453;50.810;12.540;2023-03-12T07:39:36;0.60;99.90
20590;DHT22;10453;50.810;12.540;2023-03-12T07:43:53;0.50;99.90
20590;DHT22;10453;50.810;12.540;2023-03-12T07:48:10;0.40;99.90
20590;DHT22;10453;50.810;12.540;2023-03-12T07:52:28;0.60;99.90
20590;DHT22;10453;50.810;12.540;2023-03-12T07:56:45;0.90;99.90
20590;DHT22;10453;50.810;12.540;2023-03-12T08:01:02;0.80;99.90
20590;DHT22;10453;50.810;12.540;2023-03-12T08:05:20;1.10;99.90
20590;DHT22;10453;50.810;12.540;2023-03-12T08:09:40;1.50;99.90
20590;DHT22;10453;50.810;12.540;2023-03-12T08:13:58;2.00;99.90
20590;DHT22;10453;50.810;12.540;2023-03-12T08:18:15;1.70;99.90
20590;DHT22;10453;50.810;12.540;2023-03-12T08:22:32;1.60;99.90
20590;DHT22;10453;50.810;12.540;2023-03-12T08:26:49;1.90;99.90
20590;DHT22;10453;50.810;12.540;2023-03-12T08:31:06;2.00;99.90
20590;DHT22;10453;50.810;12.540;2023-03-12T08:35:25;2.30;99.90
20590;DHT22;10453;50.810;12.540;2023-03-12T08:39:42;2.50;99.90
20590;DHT22;10453;50.810;12.540;2023-03-12T08:43:59;2.80;99.90
20590;DHT22;10453;50.810;12.540;2023-03-12T08:48:17;2.90;99.90
20590;DHT22;10453;50.810;12.540;2023-03-12T08:52:34;3.20;99.90
20590;DHT22;10453;50.810;12.540;2023-03-12T08:56:51;3.40;99.90
20590;DHT22;10453;50.810;12.540;2023-03-12T09:01:10;3.00;99.90
20590;DHT22;10453;50.810;12.540;2023-03-12T09:05:27;2.90;99.90
20590;DHT22;10453;50.810;12.540;2023-03-12T09:09:46;3.60;99.90
20590;DHT22;10453;50.810;12.540;2023-03-12T09:14:03;3.80;99.90
20590;DHT22;10453;50.810;12.540;2023-03-12T09:18:40;3.50;99.90
20590;DHT22;10453;50.810;12.540;2023-03-12T09:22:57;3.50;99.90
20590;DHT22;10453;50.810;12.540;2023-03-12T09:27:14;3.90;99.90
20590;DHT22;10453;50.810;12.540;2023-03-12T09:31:31;4.20;99.90
20590;DHT22;10453;50.810;12.540;2023-03-12T09:35:57;4.50;99.90
20590;DHT22;10453;50.810;12.540;2023-03-12T09:40:18;4.50;99.90
20590;DHT22;10453;50.810;12.540;2023-03-12T09:44:42;4.50;99.90
20590;DHT22;10453;50.810;12.540;2023-03-12T09:49:04;4.40;99.90
20590;DHT22;10453;50.810;12.540;2023-03-12T09:57:49;4.60;99.90
20590;DHT22;10453;50.810;12.540;2023-03-12T10:02:30;4.90;99.90
20590;DHT22;10453;50.810;12.540;2023-03-12T10:11:19;5.40;99.90
20590;DHT22;10453;50.810;12.540;2023-03-12T10:16:05;5.80;99.90
20590;DHT22;10453;50.810;12.540;2023-03-12T10:25:29;6.10;99.90
20590;DHT22;10453;50.810;12.540;2023-03-12T10:29:49;6.50;99.90
20590;DHT22;10453;50.810;12.540;2023-03-12T10:34:20;5.80;99.90
20590;DHT22;10453;50.810;12.540;2023-03-12T10:38:38;5.80;99.90
20590;DHT22;10453;50.810;12.540;2023-03-12T10:42:56;5.80;99.90
20590;DHT22;10453;50.810;12.540;2023-03-12T10:47:38;5.70;99.90
20590;DHT22;10453;50.810;12.540;2023-03-12T10:51:59;5.80;99.90
20590;DHT22;10453;50.810;12.540;2023-03-12T10:56:18;6.20;99.90
20590;DHT22;10453;50.810;12.540;2023-03-12T11:00:35;5.60;99.90
20590;DHT22;10453;50.810;12.540;2023-03-12T11:04:52;5.50;99.90
20590;DHT22;10453;50.810;12.540;2023-03-12T11:09:17;5.80;99.90
20590;DHT22;10453;50.810;12.540;2023-03-12T11:13:37;6.10;99.90
20590;DHT22;10453;50.810;12.540;2023-03-12T11:18:36;6.00;99.90
20590;DHT22;10453;50.810;12.540;2023-03-12T11:22:53;5.90;99.90
20590;DHT22;10453;50.810;12.540;2023-03-12T11:27:40;5.80;99.90
20590;DHT22;10453;50.810;12.540;2023-03-12T11:32:03;5.90;99.90
20590;DHT22;10453;50.810;12.540;2023-03-12T11:36:55;5.90;99.90
20590;DHT22;10453;50.810;12.540;2023-03-12T11:42:04;6.00;99.90
20590;DHT22;10453;50.810;12.540;2023-03-12T11:55:20;6.10;99.90
20590;DHT22;10453;50.810;12.540;2023-03-12T12:04:51;6.10;99.90
20590;DHT22;10453;50.810;12.540;2023-03-12T12:09:24;6.30;99.90
20590;DHT22;10453;50.810;12.540;2023-03-12T12:14:04;6.40;99.90
20590;DHT22;10453;50.810;12.540;2023-03-12T12:18:46;6.80;99.90
20590;DHT22;10453;50.810;12.540;2023-03-12T12:23:15;6.90;99.90
20590;DHT22;10453;50.810;12.540;2023-03-12T12:27:39;6.70;99.90
20590;DHT22;10453;50.810;12.540;2023-03-12T12:32:00;6.00;99.90
20590;DHT22;10453;50.810;12.540;2023-03-12T12:36:20;5.70;99.90
20590;DHT22;10453;50.810;12.540;2023-03-12T12:41:25;5.60;99.90
20590;DHT22;10453;50.810;12.540;2023-03-12T12:45:23;5.60;99.90
20590;DHT22;10453;50.810;12.540;2023-03-12T12:49:54;5.60;99.90
20590;DHT22;10453;50.810;12.540;2023-03-12T12:59:09;5.60;99.90
20590;DHT22;10453;50.810;12.540;2023-03-12T13:03:32;5.80;99.90
20590;DHT22;10453;50.810;12.540;2023-03-12T13:07:50;6.40;99.90
20590;DHT22;10453;50.810;12.540;2023-03-12T13:16:43;6.80;99.90
20590;DHT22;10453;50.810;12.540;2023-03-12T13:21:14;6.20;99.90
20590;DHT22;10453;50.810;12.540;2023-03-12T13:34:49;5.80;99.90
20590;DHT22;10453;50.810;12.540;2023-03-12T13:39:21;5.80;99.90
20590;DHT22;10453;50.810;12.540;2023-03-12T13:43:47;5.80;99.90
20590;DHT22;10453;50.810;12.540;2023-03-12T13:48:13;5.60;99.90
20590;DHT22;10453;50.810;12.540;2023-03-12T13:52:40;5.80;99.90
20590;DHT22;10453;50.810;12.540;2023-03-12T13:57:01;5.80;99.90
20590;DHT22;10453;50.810;12.540;2023-03-12T14:01:22;6.00;99.90
20590;DHT22;10453;50.810;12.540;2023-03-12T14:05:59;6.00;99.90
20590;DHT22;10453;50.810;12.540;2023-03-12T14:10:42;5.70;99.90
20590;DHT22;10453;50.810;12.540;2023-03-12T14:19:26;5.60;99.90
20590;DHT22;10453;50.810;12.540;2023-03-12T14:23:55;5.60;99.90
20590;DHT22;10453;50.810;12.540;2023-03-12T14:28:17;5.40;99.90
20590;DHT22;10453;50.810;12.540;2023-03-12T14:32:36;5.40;99.90
20590;DHT22;10453;50.810;12.540;2023-03-12T14:41:34;5.80;99.90
20590;DHT22;10453;50.810;12.540;2023-03-12T14:45:57;5.80;99.90
20590;DHT22;10453;50.810;12.540;2023-03-12T14:50:29;5.80;99.90
20590;DHT22;10453;50.810;12.540;2023-03-12T14:54:59;5.90;99.90
20590;DHT22;10453;50.810;12.540;2023-03-12T14:59:31;6.00;99.90
20590;DHT22;10453;50.810;12.540;2023-03-12T15:03:52;5.80;99.90
20590;DHT22;10453;50.810;12.540;2023-03-12T15:08:11;5.60;99.90
20590;DHT22;10453;50.810;12.540;2023-03-12T15:12:33;5.50;99.90
20590;DHT22;10453;50.810;12.540;2023-03-12T15:16:51;5.50;99.90
20590;DHT22;10453;50.810;12.540;2023-03-12T15:21:08;5.40;99.90
20590;DHT22;10453;50.810;12.540;2023-03-12T15:25:30;5.30;99.90
20590;DHT22;10453;50.810;12.540;2023-03-12T15:29:48;5.20;99.90
20590;DHT22;10453;50.810;12.540;2023-03-12T15:34:05;5.30;99.90
20590;DHT22;10453;50.810;12.540;2023-03-12T15:38:23;5.30;99.90
20590;DHT22;10453;50.810;12.540;2023-03-12T15:42:42;5.30;99.90
20590;DHT22;10453;50.810;12.540;2023-03-12T15:47:08;5.30;99.90
20590;DHT22;10453;50.810;12.540;2023-03-12T15:51:35;5.40;99.90
20590;DHT22;10453;50.810;12.540;2023-03-12T16:00:29;5.40;99.90
20590;DHT22;10453;50.810;12.540;2023-03-12T16:04:46;5.40;99.90
20590;DHT22;10453;50.810;12.540;2023-03-12T16:09:04;5.50;99.90
20590;DHT22;10453;50.810;12.540;2023-03-12T16:13:25;5.50;99.90
20590;DHT22;10453;50.810;12.540;2023-03-12T16:17:44;5.50;99.90
20590;DHT22;10453;50.810;12.540;2023-03-12T16:22:01;5.50;99.90
20590;DHT22;10453;50.810;12.540;2023-03-12T16:26:19;5.50;99.90
20590;DHT22;10453;50.810;12.540;2023-03-12T16:30:38;5.50;99.90
20590;DHT22;10453;50.810;12.540;2023-03-12T16:34:55;5.50;99.90
20590;DHT22;10453;50.810;12.540;2023-03-12T16:39:13;5.60;99.90
20590;DHT22;10453;50.810;12.540;2023-03-12T16:43:33;5.60;99.90
20590;DHT22;10453;50.810;12.540;2023-03-12T16:47:54;5.60;99.90
20590;DHT22;10453;50.810;12.540;2023-03-12T16:52:20;5.60;99.90
20590;DHT22;10453;50.810;12.540;2023-03-12T16:56:43;5.60;99.90
20590;DHT22;10453;50.810;12.540;2023-03-12T17:01:01;5.60;99.90
20590;DHT22;10453;50.810;12.540;2023-03-12T17:05:19;5.60;99.90
20590;DHT22;10453;50.810;12.540;2023-03-12T17:09:36;5.60;99.90
20590;DHT22;10453;50.810;12.540;2023-03-12T17:13:56;5.60;99.90
20590;DHT22;10453;50.810;12.540;2023-03-12T17:18:14;5.50;99.90
20590;DHT22;10453;50.810;12.540;2023-03-12T17:22:33;5.50;99.90
20590;DHT22;10453;50.810;12.540;2023-03-12T17:26:50;5.50;99.90
20590;DHT22;10453;50.810;12.540;2023-03-12T17:31:09;5.50;99.90
20590;DHT22;10453;50.810;12.540;2023-03-12T17:35:26;5.50;99.90
20590;DHT22;10453;50.810;12.540;2023-03-12T17:39:44;5.50;99.90
20590;DHT22;10453;50.810;12.540;2023-03-12T17:44:01;5.50;99.90
20590;DHT22;10453;50.810;12.540;2023-03-12T17:48:19;5.70;99.90
20590;DHT22;10453;50.810;12.540;2023-03-12T17:52:39;5.60;99.90
20590;DHT22;10453;50.810;12.540;2023-03-12T17:56:56;5.60;99.90
20590;DHT22;10453;50.810;12.540;2023-03-12T18:01:14;5.60;99.90
20590;DHT22;10453;50.810;12.540;2023-03-12T18:05:32;5.60;99.90
20590;DHT22;10453;50.810;12.540;2023-03-12T18:09:49;5.60;99.90
20590;DHT22;10453;50.810;12.540;2023-03-12T18:14:07;5.60;99.90
20590;DHT22;10453;50.810;12.540;2023-03-12T18:18:25;5.60;99.90
20590;DHT22;10453;50.810;12.540;2023-03-12T18:22:43;5.60;99.90
20590;DHT22;10453;50.810;12.540;2023-03-12T18:27:01;5.60;99.90
20590;DHT22;10453;50.810;12.540;2023-03-12T18:31:18;5.60;99.90
20590;DHT22;10453;50.810;12.540;2023-03-12T18:35:35;5.70;99.90
20590;DHT22;10453;50.810;12.540;2023-03-12T18:39:52;5.80;99.90
20590;DHT22;10453;50.810;12.540;2023-03-12T18:44:09;5.90;99.90
20590;DHT22;10453;50.810;12.540;2023-03-12T18:48:27;6.00;99.90
20590;DHT22;10453;50.810;12.540;2023-03-12T18:52:44;6.10;99.90
20590;DHT22;10453;50.810;12.540;2023-03-12T18:57:01;6.00;99.90
20590;DHT22;10453;50.810;12.540;2023-03-12T19:01:18;6.10;99.90
20590;DHT22;10453;50.810;12.540;2023-03-12T19:05:35;6.10;99.90
20590;DHT22;10453;50.810;12.540;2023-03-12T19:09:52;6.20;99.90
20590;DHT22;10453;50.810;12.540;2023-03-12T19:14:09;6.20;99.90
20590;DHT22;10453;50.810;12.540;2023-03-12T19:18:28;6.20;99.90
20590;DHT22;10453;50.810;12.540;2023-03-12T19:22:45;6.20;99.90
20590;DHT22;10453;50.810;12.540;2023-03-12T19:27:02;6.20;99.90
20590;DHT22;10453;50.810;12.540;2023-03-12T19:31:19;6.20;99.90
20590;DHT22;10453;50.810;12.540;2023-03-12T19:35:40;6.30;99.90
20590;DHT22;10453;50.810;12.540;2023-03-12T19:39:58;6.30;99.90
20590;DHT22;10453;50.810;12.540;2023-03-12T19:44:16;6.30;99.90
20590;DHT22;10453;50.810;12.540;2023-03-12T19:48:33;6.30;99.90
20590;DHT22;10453;50.810;12.540;2023-03-12T19:52:50;6.30;99.90
20590;DHT22;10453;50.810;12.540;2023-03-12T19:57:07;6.50;99.90
20590;DHT22;10453;50.810;12.540;2023-03-12T20:01:24;6.40;99.90
20590;DHT22;10453;50.810;12.540;2023-03-12T20:05:43;6.40;99.90
20590;DHT22;10453;50.810;12.540;2023-03-12T20:10:00;6.40;99.90
20590;DHT22;10453;50.810;12.540;2023-03-12T20:14:17;6.30;99.90
20590;DHT22;10453;50.810;12.540;2023-03-12T20:18:34;6.30;99.90
20590;DHT22;10453;50.810;12.540;2023-03-12T20:22:51;6.20;99.90
20590;DHT22;10453;50.810;12.540;2023-03-12T20:27:09;6.30;99.90
20590;DHT22;10453;50.810;12.540;2023-03-12T20:31:26;6.30;99.90
20590;DHT22;10453;50.810;12.540;2023-03-12T20:35:43;6.30;99.90
20590;DHT22;10453;50.810;12.540;2023-03-12T20:40:00;6.30;99.90
20590;DHT22;10453;50.810;12.540;2023-03-12T20:44:17;6.40;99.90
20590;DHT22;10453;50.810;12.540;2023-03-12T20:48:34;6.40;99.90
20590;DHT22;10453;50.810;12.540;2023-03-12T20:52:51;6.50;99.90
20590;DHT22;10453;50.810;12.540;2023-03-12T20:57:09;6.50;99.90
20590;DHT22;10453;50.810;12.540;2023-03-12T21:01:27;6.50;99.90
20590;DHT22;10453;50.810;12.540;2023-03-12T21:05:52;6.50;99.90
20590;DHT22;10453;50.810;12.540;2023-03-12T21:10:10;6.60;99.90
20590;DHT22;10453;50.810;12.540;2023-03-12T21:14:28;6.70;99.90
20590;DHT22;10453;50.810;12.540;2023-03-12T21:18:45;6.80;99.90
20590;DHT22;10453;50.810;12.540;2023-03-12T21:23:02;6.80;99.90
20590;DHT22;10453;50.810;12.540;2023-03-12T21:27:20;6.90;99.90
20590;DHT22;10453;50.810;12.540;2023-03-12T21:31:38;6.90;99.90
20590;DHT22;10453;50.810;12.540;2023-03-12T21:35:56;6.90;99.90
20590;DHT22;10453;50.810;12.540;2023-03-12T21:40:13;7.00;99.90
20590;DHT22;10453;50.810;12.540;2023-03-12T21:44:32;7.00;99.90
20590;DHT22;10453;50.810;12.540;2023-03-12T21:48:49;7.00;99.90
20590;DHT22;10453;50.810;12.540;2023-03-12T21:53:07;7.10;99.90
20590;DHT22;10453;50.810;12.540;2023-03-12T21:57:39;7.20;99.90
20590;DHT22;10453;50.810;12.540;2023-03-12T22:01:57;7.20;99.90
20590;DHT22;10453;50.810;12.540;2023-03-12T22:06:15;7.30;99.90
20590;DHT22;10453;50.810;12.540;2023-03-12T22:10:32;7.30;99.90
20590;DHT22;10453;50.810;12.540;2023-03-12T22:14:49;7.30;99.90
20590;DHT22;10453;50.810;12.540;2023-03-12T22:19:07;7.40;99.90
20590;DHT22;10453;50.810;12.540;2023-03-12T22:23:25;7.40;99.90
20590;DHT22;10453;50.810;12.540;2023-03-12T22:27:42;7.40;99.90
20590;DHT22;10453;50.810;12.540;2023-03-12T22:31:59;7.40;99.90
20590;DHT22;10453;50.810;12.540;2023-03-12T22:36:17;7.50;99.90
20590;DHT22;10453;50.810;12.540;2023-03-12T22:40:35;7.50;99.90
20590;DHT22;10453;50.810;12.540;2023-03-12T22:44:52;7.50;99.90
20590;DHT22;10453;50.810;12.540;2023-03-12T22:49:09;7.50;99.90
20590;DHT22;10453;50.810;12.540;2023-03-12T22:53:28;7.70;99.90
20590;DHT22;10453;50.810;12.540;2023-03-12T22:57:46;7.70;99.90
20590;DHT22;10453;50.810;12.540;2023-03-12T23:02:03;7.60;99.90
20590;DHT22;10453;50.810;12.540;2023-03-12T23:06:25;7.60;99.90
20590;DHT22;10453;50.810;12.540;2023-03-12T23:10:52;7.60;99.90
20590;DHT22;10453;50.810;12.540;2023-03-12T23:15:12;7.60;99.90
20590;DHT22;10453;50.810;12.540;2023-03-12T23:19:32;7.70;99.90
20590;DHT22;10453;50.810;12.540;2023-03-12T23:23:50;7.60;99.90
20590;DHT22;10453;50.810;12.540;2023-03-12T23:28:08;7.70;99.90
20590;DHT22;10453;50.810;12.540;2023-03-12T23:32:25;7.70;99.90
20590;DHT22;10453;50.810;12.540;2023-03-12T23:36:42;7.70;99.90
20590;DHT22;10453;50.810;12.540;2023-03-12T23:41:05;7.70;99.90
20590;DHT22;10453;50.810;12.540;2023-03-12T23:45:23;7.70;99.90
20590;DHT22;10453;50.810;12.540;2023-03-12T23:49:40;7.70;99.90
20590;DHT22;10453;50.810;12.540;2023-03-12T23:53:59;7.80;99.90
20590;DHT22;10453;50.810;12.540;2023-03-12T23:58:16;7.90;99.90
